EDT,Max TemperatureF,Mean TemperatureF,Min TemperatureF,Max Dew PointF,MeanDew PointF,Min DewpointF,Max Humidity, Mean Humidity, Min Humidity, Max Sea Level PressureIn, Mean Sea Level PressureIn, Min Sea Level PressureIn, Max VisibilityMiles, Mean VisibilityMiles, Min VisibilityMiles, Max Wind SpeedMPH, Mean Wind SpeedMPH, Max Gust SpeedMPH,PrecipitationIn, CloudCover, Events, WindDirDegrees
2013-3-1,43,40,35,32,28,25,89,63,43,30.04,30.01,29.98,10,10,9,10,5,,0.00,8,,286
2013-3-2,39,36,33,34,28,25,93,75,50,30.08,30.02,29.98,10,10,7,12,4,18,0.00,8,Snow,303
2013-3-3,43,35,26,27,20,16,78,56,27,30.12,30.08,30.06,10,10,9,17,8,23,0.00,5,Snow,336
2013-3-4,55,40,25,34,24,19,89,57,17,30.19,30.10,29.99,10,10,10,6,1,,0.00,1,,165
2013-3-5,64,52,39,57,46,26,88,74,58,30.00,29.84,29.65,10,9,2,24,8,34,0.43,8,Rain-Thunderstorm,229
2013-3-6,46,40,33,30,24,18,82,57,43,30.23,30.12,29.94,10,10,10,17,11,31,0.00,5,,326
2013-3-7,55,44,33,31,28,25,75,60,33,30.30,30.26,30.22,10,10,10,14,9,21,0.00,2,,2
2013-3-8,62,46,30,30,24,15,82,50,15,30.36,30.29,30.23,10,10,4,12,7,17,0.00,0,,358
2013-3-9,63,48,32,36,30,26,85,54,24,30.31,30.23,30.15,10,10,10,10,2,,0.00,0,,140
2013-3-10,73,60,46,45,35,30,64,37,16,30.17,30.08,29.98,10,10,10,17,8,26,0.00,0,,141
2013-3-11,63,54,44,56,51,40,100,86,42,30.02,29.87,29.79,10,7,2,17,8,29,0.83,7,Rain,208
2013-3-12,60,50,39,39,33,27,93,61,24,30.12,30.01,29.90,10,10,10,12,6,20,0.00,3,,331
2013-3-13,54,41,28,33,26,20,96,57,21,30.32,30.20,30.12,10,10,10,20,5,30,0.00,0,,323
2013-3-14,55,42,28,36,19,13,76,45,16,30.41,30.33,30.24,10,10,10,10,6,16,0.01,1,Rain,346
2013-3-15,75,52,30,42,37,28,96,58,24,30.26,30.10,29.96,10,10,6,10,3,33,0.00,0,,229
2013-3-16,77,66,54,45,42,38,72,45,24,29.98,29.92,29.85,10,10,10,13,5,23,0.00,0,,227
2013-3-17,71,60,48,53,49,44,89,69,46,29.98,29.93,29.87,10,10,6,12,3,17,0.00,1,,233
2013-3-18,64,57,50,56,53,48,100,88,75,29.92,29.86,29.78,10,9,2,75,5,18,0.21,7,Rain-Thunderstorm,147
2013-3-19,64,52,39,49,36,20,100,61,16,30.10,30.02,29.88,10,9,1,15,4,23,0.00,3,,354
2013-3-20,60,48,37,33,22,13,79,39,9,30.14,30.05,29.93,10,10,10,17,4,25,0.00,2,,318
2013-3-21,50,39,28,29,17,8,73,42,12,30.05,29.98,29.93,10,10,10,12,7,21,0.00,1,,344
2013-3-22,50,42,35,34,25,17,61,47,28,30.07,30.01,29.97,10,10,10,5,2,,0.00,8,,44
2013-3-23,53,48,42,49,44,35,100,91,63,30.00,29.91,29.74,10,6,2,10,4,,0.55,8,Rain-Thunderstorm,51
2013-3-24,57,50,43,52,48,30,100,90,56,29.81,29.63,29.45,10,7,1,18,7,37,0.94,8,Rain-Thunderstorm,91
2013-3-25,41,38,35,28,23,21,62,55,35,30.11,29.92,29.74,10,10,10,17,13,31,0.00,8,,288
2013-3-26,43,37,33,27,25,22,73,60,38,30.32,30.20,30.09,10,10,9,15,8,22,0.00,7,,310
2013-3-27,55,40,26,28,24,22,84,55,25,30.38,30.32,30.25,10,10,10,12,5,18,0.00,0,,332
2013-3-28,63,46,28,34,28,22,96,57,17,30.37,30.30,30.23,10,10,10,12,2,22,0.00,0,,328
2013-3-29,66,50,33,37,33,31,93,61,29,30.34,30.26,30.18,10,10,9,10,2,,0.00,4,,42
2013-3-30,72,58,43,55,46,37,100,74,32,30.20,30.10,30.00,10,8,3,10,4,24,0.12,6,Rain,34
2013-3-31,69,62,55,61,56,53,100,89,53,30.02,29.92,29.84,10,7,2,10,3,17,0.08,7,Rain,231